createdAt,value
2023-03-16T00:01:25.637Z,13.73
2023-03-16T00:03:55.230Z,13.93
2023-03-16T00:06:23.511Z,14.60
2023-03-16T00:08:52.135Z,12.77
2023-03-16T00:11:19.074Z,13.27
2023-03-16T00:13:45.855Z,13.77
2023-03-16T00:16:17.133Z,15.32
2023-03-16T00:18:44.155Z,15.07
2023-03-16T00:21:13.172Z,13.63
2023-03-16T00:23:40.003Z,14.15
2023-03-16T00:26:09.313Z,15.55
2023-03-16T00:28:36.854Z,14.95
2023-03-16T00:31:08.151Z,15.60
2023-03-16T00:33:35.016Z,14.63
2023-03-16T00:36:03.505Z,16.33
2023-03-16T00:38:36.050Z,16.40
2023-03-16T00:41:04.436Z,17.10
2023-03-16T00:43:40.673Z,16.55
2023-03-16T00:46:13.510Z,16.23
2023-03-16T00:48:42.862Z,16.40
2023-03-16T00:51:15.391Z,16.50
2023-03-16T00:53:44.356Z,16.35
2023-03-16T00:56:12.396Z,16.23
2023-03-16T00:58:43.167Z,15.90
2023-03-16T01:01:13.801Z,15.25
2023-03-16T01:03:41.156Z,15.40
2023-03-16T01:06:13.562Z,15.52
2023-03-16T01:08:42.032Z,15.60
2023-03-16T01:11:16.261Z,15.98
2023-03-16T01:13:43.562Z,15.65
2023-03-16T01:16:10.988Z,15.52
2023-03-16T01:18:37.947Z,15.80
2023-03-16T01:21:08.985Z,15.98
2023-03-16T01:23:36.731Z,15.15
2023-03-16T01:26:03.554Z,14.45
2023-03-16T01:28:32.168Z,14.88
2023-03-16T01:31:05.768Z,13.82
2023-03-16T01:33:33.747Z,14.30
2023-03-16T01:36:03.488Z,15.05
2023-03-16T01:38:30.331Z,15.30
2023-03-16T01:40:57.180Z,15.60
2023-03-16T01:43:29.073Z,14.57
2023-03-16T01:46:18.379Z,14.55
2023-03-16T01:48:51.757Z,15.98
2023-03-16T01:51:27.621Z,15.40
2023-03-16T01:54:04.403Z,13.93
2023-03-16T01:56:39.838Z,15.18
2023-03-16T01:59:12.124Z,14.57
2023-03-16T02:01:39.140Z,15.57
2023-03-16T02:04:19.410Z,14.65
2023-03-16T02:06:47.376Z,14.85
2023-03-16T02:09:14.928Z,15.45
2023-03-16T02:11:41.965Z,15.27
2023-03-16T02:14:14.196Z,15.98
2023-03-16T02:16:41.973Z,17.70
2023-03-16T02:19:16.877Z,17.42
2023-03-16T02:22:03.646Z,19.08
2023-03-16T02:24:31.136Z,19.02
2023-03-16T02:27:04.450Z,18.77
2023-03-16T02:30:01.518Z,19.30
2023-03-16T02:32:30.934Z,19.25
2023-03-16T02:34:59.864Z,19.95
2023-03-16T02:37:27.339Z,19.95
2023-03-16T02:39:54.277Z,19.85
2023-03-16T02:42:25.384Z,19.23
2023-03-16T02:44:56.812Z,20.42
2023-03-16T02:47:36.023Z,19.77
2023-03-16T02:50:06.658Z,21.92
2023-03-16T02:52:34.911Z,21.60
2023-03-16T02:55:01.909Z,20.95
2023-03-16T02:57:28.726Z,24.40
2023-03-16T02:59:55.534Z,40.92
2023-03-16T03:02:22.359Z,38.67
2023-03-16T03:04:49.437Z,53.20
2023-03-16T03:07:16.293Z,59.53
2023-03-16T03:09:43.291Z,50.85
2023-03-16T03:12:11.354Z,44.05
2023-03-16T03:14:38.833Z,32.55
2023-03-16T03:17:07.426Z,27.77
2023-03-16T03:19:35.508Z,27.10
2023-03-16T03:22:06.373Z,33.95
2023-03-16T03:24:34.186Z,32.53
2023-03-16T03:27:05.661Z,28.00
2023-03-16T03:29:36.218Z,29.20
2023-03-16T03:32:04.427Z,31.08
2023-03-16T03:34:31.866Z,32.92
2023-03-16T03:36:59.349Z,36.08
2023-03-16T03:39:26.314Z,41.05
2023-03-16T03:41:55.796Z,34.60
2023-03-16T03:44:23.203Z,33.67
2023-03-16T03:46:51.626Z,31.80
2023-03-16T03:49:18.530Z,30.40
2023-03-16T03:51:48.350Z,30.77
2023-03-16T03:54:15.192Z,35.53
2023-03-16T03:56:42.022Z,33.55
2023-03-16T03:59:08.860Z,29.08
2023-03-16T04:01:35.658Z,28.23
2023-03-16T04:04:02.416Z,27.25
2023-03-16T04:06:29.278Z,26.02
2023-03-16T04:08:56.141Z,28.05
2023-03-16T04:11:22.966Z,25.15
2023-03-16T04:13:53.518Z,24.77
2023-03-16T04:16:21.981Z,23.95
2023-03-16T04:18:48.820Z,24.60
2023-03-16T04:21:17.771Z,24.17
2023-03-16T04:23:44.868Z,24.20
2023-03-16T04:26:11.818Z,46.15
2023-03-16T04:28:39.122Z,32.65
2023-03-16T04:31:08.534Z,29.65
2023-03-16T04:33:37.213Z,35.38
2023-03-16T04:36:05.124Z,41.88
2023-03-16T04:38:36.281Z,39.97
2023-03-16T04:41:05.252Z,32.80
2023-03-16T04:43:35.437Z,30.60
2023-03-16T04:46:03.853Z,28.05
2023-03-16T04:48:32.244Z,27.85
2023-03-16T04:50:59.732Z,28.33
2023-03-16T04:53:26.497Z,25.55
2023-03-16T04:55:53.528Z,28.63
2023-03-16T04:58:20.284Z,25.92
2023-03-16T05:00:48.130Z,26.52
2023-03-16T05:03:15.148Z,24.27
2023-03-16T05:05:42.610Z,23.30
2023-03-16T05:08:10.877Z,23.58
2023-03-16T05:10:38.762Z,23.92
2023-03-16T05:13:06.606Z,23.45
2023-03-16T05:15:33.562Z,23.23
2023-03-16T05:18:01.639Z,23.25
2023-03-16T05:20:28.572Z,22.90
2023-03-16T05:22:55.490Z,22.83
2023-03-16T05:25:23.048Z,22.42
2023-03-16T05:27:51.797Z,21.95
2023-03-16T05:30:19.048Z,22.60
2023-03-16T05:32:46.501Z,22.80
2023-03-16T05:35:14.177Z,23.20
2023-03-16T05:37:42.107Z,22.77
2023-03-16T05:40:17.008Z,22.00
2023-03-16T05:42:48.902Z,20.23
2023-03-16T05:45:16.934Z,21.50
2023-03-16T05:47:44.158Z,22.67
2023-03-16T05:50:12.780Z,22.42
2023-03-16T05:52:40.951Z,21.63
2023-03-16T05:55:09.507Z,21.80
2023-03-16T05:57:36.708Z,21.42
2023-03-16T06:00:14.720Z,22.33
2023-03-16T06:02:49.148Z,20.77
2023-03-16T06:05:17.416Z,22.77
2023-03-16T06:07:44.936Z,20.20
2023-03-16T06:10:12.929Z,21.65
2023-03-16T06:12:39.880Z,21.00
2023-03-16T06:15:08.048Z,20.42
2023-03-16T06:17:35.625Z,20.80
2023-03-16T06:20:03.882Z,21.10
2023-03-16T06:22:30.830Z,21.63
2023-03-16T06:24:57.632Z,20.95
2023-03-16T06:27:26.517Z,22.20
2023-03-16T06:29:53.534Z,20.75
2023-03-16T06:32:20.544Z,19.30
2023-03-16T06:34:47.947Z,20.25
2023-03-16T06:37:14.776Z,20.38
2023-03-16T06:39:41.529Z,19.58
2023-03-16T06:42:08.405Z,19.38
2023-03-16T06:44:35.366Z,18.52
2023-03-16T06:47:02.202Z,19.85
2023-03-16T06:49:29.019Z,18.20
2023-03-16T06:51:56.666Z,19.02
2023-03-16T06:54:23.477Z,19.02
2023-03-16T06:56:51.075Z,19.23
2023-03-16T06:59:17.888Z,18.15
2023-03-16T07:01:45.185Z,17.85
2023-03-16T07:04:12.819Z,19.75
2023-03-16T07:06:39.775Z,20.02
2023-03-16T07:09:06.981Z,20.98
2023-03-16T07:11:34.186Z,22.05
2023-03-16T07:14:01.666Z,21.42
2023-03-16T07:16:29.166Z,22.02
2023-03-16T07:18:56.206Z,21.40
2023-03-16T07:21:23.079Z,28.20
2023-03-16T07:23:51.765Z,27.42
2023-03-16T07:26:18.762Z,27.10
2023-03-16T07:28:45.570Z,23.55
2023-03-16T07:31:12.938Z,21.33
2023-03-16T07:33:40.152Z,20.33
2023-03-16T07:36:09.302Z,19.08
2023-03-16T07:38:36.207Z,21.20
2023-03-16T07:41:03.328Z,19.35
2023-03-16T07:43:30.106Z,21.38
2023-03-16T07:45:56.916Z,23.10
2023-03-16T07:48:23.886Z,22.85
2023-03-16T07:50:50.905Z,21.45
2023-03-16T07:53:18.040Z,20.77
2023-03-16T07:55:52.809Z,20.05
2023-03-16T07:58:19.660Z,19.92
2023-03-16T08:00:46.409Z,20.48
2023-03-16T08:03:24.982Z,21.05
2023-03-16T08:05:53.032Z,20.67
2023-03-16T08:08:23.131Z,20.70
2023-03-16T08:10:52.734Z,20.42
2023-03-16T08:13:22.474Z,20.48
2023-03-16T08:15:58.768Z,20.25
2023-03-16T08:18:28.563Z,20.05
2023-03-16T08:20:56.312Z,20.95
2023-03-16T08:23:24.767Z,25.38
2023-03-16T08:25:55.866Z,26.73
2023-03-16T08:28:25.925Z,25.77
2023-03-16T08:30:54.013Z,24.52
2023-03-16T08:33:23.379Z,21.52
2023-03-16T08:35:50.817Z,21.45
2023-03-16T08:38:19.236Z,22.02
2023-03-16T08:40:49.063Z,23.05
2023-03-16T08:43:18.038Z,22.83
2023-03-16T08:45:46.079Z,21.20
2023-03-16T08:48:14.324Z,23.23
2023-03-16T08:50:43.331Z,23.95
2023-03-16T08:53:12.014Z,28.52
2023-03-16T08:55:38.878Z,25.83
2023-03-16T08:58:05.750Z,33.08
2023-03-16T09:00:32.532Z,32.00
2023-03-16T09:03:00.755Z,32.60
2023-03-16T09:05:27.584Z,30.63
2023-03-16T09:07:54.643Z,30.30
2023-03-16T09:10:23.239Z,23.38
2023-03-16T09:12:52.126Z,23.35
2023-03-16T09:15:20.888Z,23.92
2023-03-16T09:17:49.094Z,24.95
2023-03-16T09:20:22.777Z,25.60
2023-03-16T09:22:54.812Z,27.33
2023-03-16T09:25:21.870Z,25.45
2023-03-16T09:27:48.778Z,25.42
2023-03-16T09:30:21.193Z,22.77
2023-03-16T09:32:49.098Z,22.33
2023-03-16T09:35:16.248Z,21.30
2023-03-16T09:37:45.490Z,23.63
2023-03-16T09:40:28.825Z,22.13
2023-03-16T09:43:07.283Z,20.65
2023-03-16T09:45:58.158Z,21.33
2023-03-16T09:48:27.047Z,20.05
2023-03-16T09:50:54.888Z,22.63
2023-03-16T09:53:35.436Z,21.02
2023-03-16T09:56:08.399Z,18.73
2023-03-16T09:58:36.701Z,20.70
2023-03-16T10:01:11.278Z,19.08
2023-03-16T10:04:13.510Z,19.60
2023-03-16T10:06:52.461Z,19.42
2023-03-16T10:09:32.178Z,21.58
2023-03-16T10:12:02.696Z,21.83
2023-03-16T10:15:01.946Z,18.73
2023-03-16T10:17:39.260Z,19.15
2023-03-16T10:20:09.173Z,19.27
2023-03-16T10:22:42.382Z,18.02
2023-03-16T10:25:16.666Z,19.02
2023-03-16T10:27:46.078Z,18.08
2023-03-16T10:30:34.884Z,19.00
2023-03-16T10:33:14.004Z,18.52
2023-03-16T10:35:51.968Z,18.05
2023-03-16T10:38:46.992Z,16.73
2023-03-16T10:41:22.486Z,17.73
2023-03-16T10:43:57.445Z,17.92
2023-03-16T10:46:28.902Z,18.00
2023-03-16T10:49:00.855Z,17.25
2023-03-16T10:51:38.103Z,17.30
2023-03-16T10:54:14.256Z,15.85
2023-03-16T10:56:41.122Z,19.58
2023-03-16T10:59:30.503Z,17.42
2023-03-16T11:01:58.428Z,19.52
2023-03-16T11:04:25.684Z,21.67
2023-03-16T11:06:57.183Z,21.63
2023-03-16T11:09:33.177Z,20.60
2023-03-16T11:14:28.721Z,20.40
2023-03-16T11:17:06.056Z,19.27
2023-03-16T11:19:57.828Z,17.58
2023-03-16T11:22:26.622Z,17.77
2023-03-16T11:25:09.495Z,16.77
2023-03-16T11:28:12.013Z,17.13
2023-03-16T11:30:43.924Z,17.45
2023-03-16T11:33:14.153Z,17.70
2023-03-16T11:36:13.892Z,17.60
2023-03-16T11:38:55.795Z,17.15
2023-03-16T11:42:02.513Z,18.75
2023-03-16T11:44:59.440Z,18.15
2023-03-16T11:50:30.520Z,19.05
2023-03-16T11:53:07.852Z,17.65
2023-03-16T11:56:08.118Z,18.30
2023-03-16T11:58:35.203Z,17.40
2023-03-16T12:01:07.970Z,17.98
2023-03-16T12:04:02.116Z,17.80
2023-03-16T12:06:40.668Z,17.63
2023-03-16T12:09:26.750Z,18.17
2023-03-16T12:11:56.406Z,18.20
2023-03-16T12:14:55.550Z,18.08
2023-03-16T12:17:29.656Z,17.88
2023-03-16T12:20:05.894Z,19.13
2023-03-16T12:22:44.383Z,18.13
2023-03-16T12:25:24.908Z,18.98
2023-03-16T12:27:54.572Z,19.77
2023-03-16T12:30:27.620Z,17.70
2023-03-16T12:33:09.881Z,18.77
2023-03-16T12:35:59.465Z,18.83
2023-03-16T12:38:41.569Z,18.70
2023-03-16T12:41:27.740Z,18.73
2023-03-16T12:44:15.332Z,18.48
2023-03-16T12:46:47.927Z,18.50
2023-03-16T12:49:15.278Z,19.08
2023-03-16T12:51:43.774Z,18.50
2023-03-16T12:54:25.391Z,18.40
2023-03-16T12:56:59.721Z,18.50
2023-03-16T12:59:45.693Z,19.15
2023-03-16T13:02:20.813Z,21.35
2023-03-16T13:04:54.684Z,20.25
2023-03-16T13:07:24.894Z,20.20
2023-03-16T13:09:57.203Z,19.83
2023-03-16T13:12:32.585Z,21.63
2023-03-16T13:14:59.534Z,28.52
2023-03-16T13:17:37.872Z,23.85
2023-03-16T13:20:29.341Z,22.88
2023-03-16T13:23:18.983Z,20.90
2023-03-16T13:25:58.387Z,21.13
2023-03-16T13:28:30.002Z,22.10
2023-03-16T13:30:57.126Z,20.60
2023-03-16T13:33:31.191Z,20.02
2023-03-16T13:35:59.995Z,23.30
2023-03-16T13:38:28.704Z,28.67
2023-03-16T13:41:01.547Z,22.67
2023-03-16T13:43:31.749Z,19.48
2023-03-16T13:45:59.296Z,17.48
2023-03-16T13:48:26.476Z,18.55
2023-03-16T13:50:57.512Z,17.83
2023-03-16T13:53:29.892Z,16.88
2023-03-16T13:55:58.794Z,21.73
2023-03-16T13:58:35.259Z,20.30
2023-03-16T14:01:04.085Z,19.88
2023-03-16T14:03:34.017Z,17.98
2023-03-16T14:06:01.852Z,17.23
2023-03-16T14:08:30.405Z,20.02
2023-03-16T14:11:00.897Z,21.98
2023-03-16T14:13:28.108Z,20.20
2023-03-16T14:16:17.715Z,19.10
2023-03-16T14:18:52.410Z,17.05
2023-03-16T14:21:27.972Z,17.65
2023-03-16T14:24:06.945Z,17.45
2023-03-16T14:26:42.438Z,20.40
2023-03-16T14:29:30.298Z,29.98
2023-03-16T14:31:58.901Z,24.77
2023-03-16T14:34:39.549Z,21.65
2023-03-16T14:37:12.816Z,13.85
2023-03-16T14:39:42.500Z,13.23
2023-03-16T14:42:24.347Z,13.32
2023-03-16T14:44:51.704Z,14.27
2023-03-16T14:47:31.014Z,14.18
2023-03-16T14:50:06.173Z,14.05
2023-03-16T14:52:33.987Z,13.17
2023-03-16T14:55:03.653Z,12.55
2023-03-16T14:57:30.665Z,12.48
2023-03-16T14:59:57.643Z,13.05
2023-03-16T15:02:33.373Z,12.40
2023-03-16T15:05:02.085Z,13.20
2023-03-16T15:07:37.104Z,12.88
2023-03-16T15:10:07.252Z,13.25
2023-03-16T15:12:38.001Z,12.38
2023-03-16T15:15:19.636Z,12.70
2023-03-16T15:17:46.978Z,12.98
2023-03-16T15:20:16.206Z,13.27
2023-03-16T15:22:45.030Z,13.57
2023-03-16T15:25:24.977Z,13.02
2023-03-16T15:27:53.783Z,14.48
2023-03-16T15:30:26.045Z,12.05
2023-03-16T15:32:53.320Z,13.40
2023-03-16T15:35:21.350Z,13.10
2023-03-16T15:37:49.107Z,12.63
2023-03-16T15:40:19.744Z,14.10
2023-03-16T15:42:47.076Z,12.93
2023-03-16T15:45:17.961Z,13.75
2023-03-16T15:47:45.715Z,14.00
2023-03-16T15:50:15.654Z,14.75
2023-03-16T15:52:47.474Z,14.18
2023-03-16T15:55:24.304Z,14.48
2023-03-16T15:57:59.978Z,15.00
2023-03-16T16:00:34.812Z,13.93
2023-03-16T16:03:03.007Z,14.27
2023-03-16T16:05:31.035Z,14.75
2023-03-16T16:07:58.994Z,15.63
2023-03-16T16:10:27.063Z,14.50
2023-03-16T16:12:55.823Z,15.25
2023-03-16T16:15:33.962Z,17.63
2023-03-16T16:18:20.260Z,27.38
2023-03-16T16:20:48.450Z,28.98
2023-03-16T16:23:16.948Z,24.60
2023-03-16T16:25:44.968Z,19.85
2023-03-16T16:28:16.456Z,18.25
2023-03-16T16:30:44.566Z,18.75
2023-03-16T16:33:33.139Z,18.45
2023-03-16T16:36:02.505Z,17.92
2023-03-16T16:38:30.334Z,17.58
2023-03-16T16:41:00.053Z,16.20
2023-03-16T16:43:43.199Z,15.38
2023-03-16T16:46:24.038Z,15.35
2023-03-16T16:48:54.120Z,15.32
2023-03-16T16:51:23.365Z,14.65
2023-03-16T16:53:51.824Z,14.30
2023-03-16T16:56:25.725Z,19.58
2023-03-16T16:58:52.716Z,21.48
2023-03-16T17:01:29.133Z,18.02
2023-03-16T17:03:56.643Z,15.55
2023-03-16T17:06:23.456Z,13.95
2023-03-16T17:08:50.389Z,13.60
2023-03-16T17:11:22.988Z,14.63
2023-03-16T17:13:52.824Z,14.27
2023-03-16T17:16:22.915Z,14.65
2023-03-16T17:18:50.078Z,15.65
2023-03-16T17:21:23.651Z,21.42
2023-03-16T17:23:52.821Z,18.60
2023-03-16T17:26:40.549Z,18.05
2023-03-16T17:29:21.146Z,15.70
2023-03-16T17:31:48.763Z,14.63
2023-03-16T17:34:21.752Z,12.65
2023-03-16T17:36:49.530Z,14.13
2023-03-16T17:39:28.197Z,12.57
2023-03-16T17:42:00.262Z,11.98
2023-03-16T17:44:34.110Z,11.73
2023-03-16T17:47:01.623Z,12.60
2023-03-16T17:49:28.757Z,10.95
2023-03-16T17:51:56.337Z,11.77
2023-03-16T17:54:23.258Z,11.40
2023-03-16T17:56:52.299Z,10.75
2023-03-16T17:59:22.223Z,10.52
2023-03-16T18:01:49.429Z,11.13
2023-03-16T18:04:18.848Z,10.60
2023-03-16T18:06:47.668Z,10.38
2023-03-16T18:09:18.821Z,10.82
2023-03-16T18:11:48.579Z,10.45
2023-03-16T18:14:36.498Z,10.60
2023-03-16T18:17:30.345Z,9.77
2023-03-16T18:19:57.995Z,9.40
2023-03-16T18:22:25.579Z,9.98
2023-03-16T18:24:54.016Z,8.60
2023-03-16T18:27:20.986Z,9.25
2023-03-16T18:29:49.242Z,8.85
2023-03-16T18:32:25.519Z,11.48
2023-03-16T18:34:53.265Z,11.38
2023-03-16T18:37:27.148Z,8.52
2023-03-16T18:39:54.958Z,8.88
2023-03-16T18:42:24.058Z,8.32
2023-03-16T18:44:51.826Z,7.78
2023-03-16T18:47:22.621Z,8.10
2023-03-16T18:49:53.355Z,9.27
2023-03-16T18:52:23.813Z,7.68
2023-03-16T18:54:52.936Z,7.22
2023-03-16T18:57:25.412Z,7.53
2023-03-16T18:59:52.554Z,7.15
2023-03-16T19:02:28.847Z,7.40
2023-03-16T19:04:59.548Z,6.97
2023-03-16T19:07:33.895Z,8.80
2023-03-16T19:10:32.996Z,8.10
2023-03-16T19:13:00.774Z,7.15
2023-03-16T19:15:31.915Z,8.07
2023-03-16T19:17:59.403Z,8.13
2023-03-16T19:20:32.902Z,7.50
2023-03-16T19:23:07.055Z,7.63
2023-03-16T19:25:41.339Z,7.78
2023-03-16T19:28:18.222Z,6.80
2023-03-16T19:30:46.893Z,8.27
2023-03-16T19:33:26.169Z,6.82
2023-03-16T19:35:54.914Z,6.22
2023-03-16T19:38:23.291Z,6.68
2023-03-16T19:40:55.399Z,6.45
2023-03-16T19:43:23.126Z,6.65
2023-03-16T19:45:50.938Z,7.00
2023-03-16T19:48:32.822Z,6.43
2023-03-16T19:51:00.163Z,6.35
2023-03-16T19:53:27.448Z,5.90
2023-03-16T19:55:54.675Z,5.95
2023-03-16T19:58:29.749Z,5.90
2023-03-16T20:00:57.194Z,5.53
2023-03-16T20:03:24.257Z,5.68
2023-03-16T20:05:51.036Z,5.20
2023-03-16T20:08:21.258Z,4.55
2023-03-16T20:10:48.651Z,5.28
2023-03-16T20:13:15.668Z,4.72
2023-03-16T20:15:43.007Z,5.22
2023-03-16T20:18:16.182Z,5.72
2023-03-16T20:20:46.855Z,5.78
2023-03-16T20:23:34.639Z,6.15
2023-03-16T20:26:04.017Z,6.30
2023-03-16T20:28:37.767Z,5.13
2023-03-16T20:31:08.161Z,5.68
2023-03-16T20:33:35.108Z,4.18
2023-03-16T20:36:02.083Z,4.63
2023-03-16T20:38:28.915Z,5.53
2023-03-16T20:40:56.062Z,4.70
2023-03-16T20:43:31.673Z,5.00
2023-03-16T20:46:01.416Z,4.63
2023-03-16T20:48:29.321Z,4.72
2023-03-16T20:50:57.257Z,4.38
2023-03-16T20:53:24.216Z,3.88
2023-03-16T20:55:52.395Z,3.75
2023-03-16T20:58:26.193Z,4.47
2023-03-16T21:00:57.724Z,4.00
2023-03-16T21:03:28.247Z,3.78
2023-03-16T21:05:59.586Z,4.85
2023-03-16T21:08:26.823Z,4.20
2023-03-16T21:10:56.258Z,4.40
2023-03-16T21:13:28.605Z,4.95
2023-03-16T21:15:57.687Z,8.40
2023-03-16T21:18:24.610Z,8.57
2023-03-16T21:20:53.713Z,7.30
2023-03-16T21:23:23.172Z,5.78
2023-03-16T21:25:53.339Z,4.03
2023-03-16T21:28:20.741Z,3.53
2023-03-16T21:30:58.555Z,3.75
2023-03-16T21:33:31.164Z,3.20
2023-03-16T21:35:59.774Z,3.20
2023-03-16T21:38:31.221Z,3.03
2023-03-16T21:40:58.512Z,3.05
2023-03-16T21:43:25.975Z,2.92
2023-03-16T21:45:53.984Z,3.00
2023-03-16T21:48:28.124Z,2.47
2023-03-16T21:50:55.075Z,2.58
2023-03-16T21:53:31.805Z,2.47
2023-03-16T21:56:00.184Z,3.03
2023-03-16T21:58:27.369Z,2.50
2023-03-16T22:00:55.658Z,2.55
2023-03-16T22:03:29.613Z,2.42
2023-03-16T22:06:01.051Z,2.47
2023-03-16T22:08:33.274Z,2.55
2023-03-16T22:11:01.726Z,2.60
2023-03-16T22:13:29.120Z,2.47
2023-03-16T22:15:58.472Z,2.55
2023-03-16T22:18:33.439Z,2.70
2023-03-16T22:21:02.268Z,2.85
2023-03-16T22:23:35.557Z,2.88
2023-03-16T22:26:04.298Z,2.90
2023-03-16T22:28:33.902Z,2.90
2023-03-16T22:31:03.596Z,3.10
2023-03-16T22:33:37.008Z,3.60
2023-03-16T22:36:11.805Z,3.38
2023-03-16T22:38:40.084Z,3.35
2023-03-16T22:41:07.756Z,2.50
2023-03-16T22:43:38.227Z,2.80
2023-03-16T22:46:20.430Z,2.92
2023-03-16T22:48:47.479Z,2.83
2023-03-16T22:51:30.788Z,2.90
2023-03-16T22:54:08.275Z,2.92
2023-03-16T22:56:45.115Z,3.10
2023-03-16T22:59:16.216Z,2.60
2023-03-16T23:01:48.710Z,2.63
2023-03-16T23:04:21.625Z,3.03
2023-03-16T23:06:51.000Z,2.78
2023-03-16T23:09:20.412Z,2.33
2023-03-16T23:11:53.840Z,2.72
2023-03-16T23:14:27.765Z,2.58
2023-03-16T23:16:54.762Z,2.83
2023-03-16T23:19:30.769Z,2.65
2023-03-16T23:24:26.856Z,3.85
2023-03-16T23:26:54.432Z,2.85
2023-03-16T23:29:23.072Z,2.47
2023-03-16T23:31:50.316Z,2.67
2023-03-16T23:34:19.828Z,2.30
2023-03-16T23:36:47.188Z,2.22
2023-03-16T23:39:14.394Z,3.65
2023-03-16T23:41:44.963Z,2.00
2023-03-16T23:44:22.079Z,2.55
2023-03-16T23:46:49.279Z,2.20
2023-03-16T23:49:28.892Z,2.08
2023-03-16T23:51:57.632Z,2.05
2023-03-16T23:54:28.852Z,2.03
2023-03-16T23:56:56.236Z,2.53
2023-03-16T23:59:24.698Z,1.98
